Skip to main content.
Station Historical Data
 
Daily Summary for March 23, 2019 Units:  Both    English   Metric
« Previous Day
Next Day »
Daily Weekly Monthly Yearly Custom
  Current: High: Low: Average:
Temperature: 53.2 °F /  11.8 °C 57.7 °F /  14.3 °C 42.4 °F /  5.8 °C 46.2 °F /  7.9 °C
Dew Point: 45.7 °F /  7.6 °C 47.1 °F /  8.4 °C 34.5 °F /  1.4 °C 38.7 °F /  3.7 °C
Humidity: 75% 85% 63% 75%
Wind Speed: 11.6mph /  18.7km/h 17.7mph /  28.5km/h - 9.5mph /  15.3km/h
Wind Gust: 11.5mph /  18.5km/h 23mph /  37.0km/h - -
WindEast - - ESE
Pressure: 29.9 in /  1012.4 hPa 30.1 in /  1019.6 hPa 29.9 in /  1012.4 hPa -
Precipitation: 0.02 in /  0.5 mm      
Historical Graphs
 
 
Tabular Data for March 23, 2019
Time Temperature Dew Point Pressure Wind Wind Speed Wind Gust Humidity Rainfall Rate (Hourly) solar Conditions
00:04 44.4 °F /  6.9 °C 35.8 °F /  2.1 °C 30.1in /  1019.4hPa ESE 1.7mph /  2.7km/h 2.3mph /  3.7km/h 71% 0in /  0.0mm 0.00 W/m2 FEW
00:09 44.1 °F /  6.7 °C 35.6 °F /  2.0 °C 30.1in /  1019.4hPa ESE 2.2mph /  3.5km/h 3.5mph /  5.6km/h 72% 0in /  0.0mm 0.00 W/m2 FEW
00:14 43.7 °F /  6.5 °C 35.6 °F /  2.0 °C 30.1in /  1019.4hPa ESE 2.2mph /  3.5km/h 3.5mph /  5.6km/h 73% 0in /  0.0mm 0.00 W/m2 FEW
00:19 43.3 °F /  6.3 °C 35.6 °F /  2.0 °C 30.1in /  1019.3hPa ESE 3mph /  4.8km/h 3.5mph /  5.6km/h 74% 0in /  0.0mm 0.00 W/m2 FEW
00:24 43.3 °F /  6.3 °C 35.6 °F /  2.0 °C 30.1in /  1019.3hPa ESE 3mph /  4.8km/h 3.5mph /  5.6km/h 74% 0in /  0.0mm 0.00 W/m2 FEW
00:29 43.3 °F /  6.3 °C 36 °F /  2.2 °C 30.1in /  1019.3hPa ESE 3mph /  4.8km/h 3.5mph /  5.6km/h 75% 0in /  0.0mm 0.00 W/m2 FEW
00:34 43.3 °F /  6.3 °C 36 °F /  2.2 °C 30.1in /  1019.3hPa SE 2.9mph /  4.7km/h 3.5mph /  5.6km/h 75% 0in /  0.0mm 0.00 W/m2 FEW
00:39 43.3 °F /  6.3 °C 36 °F /  2.2 °C 30.1in /  1019.2hPa ESE 3.1mph /  5.0km/h 3.5mph /  5.6km/h 75% 0in /  0.0mm 0.00 W/m2 FEW
00:44 43.3 °F /  6.3 °C 35.8 °F /  2.1 °C 30.1in /  1019.2hPa ESE 3mph /  4.8km/h 3.5mph /  5.6km/h 74% 0in /  0.0mm 0.00 W/m2 FEW
00:49 43.9 °F /  6.6 °C 35.8 °F /  2.1 °C 30.1in /  1019.2hPa East 2.9mph /  4.7km/h 3.5mph /  5.6km/h 73% 0in /  0.0mm 0.00 W/m2 FEW
00:54 44.1 °F /  6.7 °C 36 °F /  2.2 °C 30.1in /  1019.3hPa ESE 4mph /  6.4km/h 4.6mph /  7.4km/h 73% 0in /  0.0mm 0.00 W/m2 FEW
00:59 44.2 °F /  6.8 °C 36.1 °F /  2.3 °C 30.1in /  1019.2hPa ESE 3.9mph /  6.3km/h 4mph /  6.4km/h 73% 0in /  0.0mm 0.00 W/m2 FEW
01:04 44.2 °F /  6.8 °C 36.1 °F /  2.3 °C 30.1in /  1019.1hPa East 4.4mph /  7.1km/h 4.6mph /  7.4km/h 73% 0in /  0.0mm 0.00 W/m2 FEW
01:09 44.1 °F /  6.7 °C 36.1 °F /  2.3 °C 30.1in /  1019.1hPa East 5.2mph /  8.4km/h 5.8mph /  9.3km/h 74% 0in /  0.0mm 0.00 W/m2 FEW
01:14 43.7 °F /  6.5 °C 36.3 °F /  2.4 °C 30.1in /  1019.1hPa East 5.6mph /  9.0km/h 8.1mph /  13.0km/h 75% 0in /  0.0mm 0.00 W/m2 FEW
01:19 43.7 °F /  6.5 °C 36.3 °F /  2.4 °C 30.1in /  1019.0hPa ESE 5.2mph /  8.4km/h 6.9mph /  11.1km/h 75% 0in /  0.0mm 0.00 W/m2 FEW
01:24 44.1 °F /  6.7 °C 36.1 °F /  2.3 °C 30.1in /  1018.9hPa ESE 5.5mph /  8.8km/h 7mph /  11.3km/h 74% 0in /  0.0mm 0.00 W/m2 FEW
01:29 44.1 °F /  6.7 °C 36.3 °F /  2.4 °C 30.1in /  1019.0hPa ESE 5.6mph /  9.0km/h 9.2mph /  14.8km/h 74% 0in /  0.0mm 0.00 W/m2 FEW
01:34 44.4 °F /  6.9 °C 36 °F /  2.2 °C 30.1in /  1019.2hPa ESE 4.9mph /  7.9km/h 6mph /  9.7km/h 72% 0in /  0.0mm 0.00 W/m2 FEW
01:39 44.6 °F /  7.0 °C 35.8 °F /  2.1 °C 30.1in /  1019.3hPa ESE 4.2mph /  6.8km/h 5.8mph /  9.3km/h 71% 0in /  0.0mm 0.00 W/m2 FEW
01:44 44.8 °F /  7.1 °C 36 °F /  2.2 °C 30.1in /  1019.3hPa East 4.5mph /  7.2km/h 6mph /  9.7km/h 71% 0in /  0.0mm 0.00 W/m2 FEW
01:49 45 °F /  7.2 °C 36.1 °F /  2.3 °C 30.1in /  1019.3hPa SE 4.3mph /  6.9km/h 5.8mph /  9.3km/h 71% 0in /  0.0mm 0.00 W/m2 FEW
01:54 45 °F /  7.2 °C 36.1 °F /  2.3 °C 30.1in /  1019.3hPa SE 4.7mph /  7.6km/h 5.8mph /  9.3km/h 71% 0in /  0.0mm 0.00 W/m2 FEW
01:59 44.8 °F /  7.1 °C 36.1 °F /  2.3 °C 30.1in /  1019.4hPa SE 4.5mph /  7.2km/h 4.6mph /  7.4km/h 72% 0in /  0.0mm 0.00 W/m2 FEW
02:04 44.4 °F /  6.9 °C 36.3 °F /  2.4 °C 30.1in /  1019.5hPa ESE 3.5mph /  5.6km/h 4.6mph /  7.4km/h 73% 0in /  0.0mm 0.00 W/m2 FEW
02:09 44.2 °F /  6.8 °C 36.3 °F /  2.4 °C 30.1in /  1019.4hPa ESE 4mph /  6.4km/h 4.6mph /  7.4km/h 74% 0in /  0.0mm 0.00 W/m2 FEW
02:14 44.1 °F /  6.7 °C 36.3 °F /  2.4 °C 30.1in /  1019.6hPa SE 4mph /  6.4km/h 4mph /  6.4km/h 74% 0in /  0.0mm 0.00 W/m2 FEW
02:19 44.2 °F /  6.8 °C 36.3 °F /  2.4 °C 30.1in /  1019.6hPa ESE 4.1mph /  6.6km/h 4.6mph /  7.4km/h 74% 0in /  0.0mm 0.00 W/m2 FEW
02:24 44.2 °F /  6.8 °C 36.1 °F /  2.3 °C 30.1in /  1019.6hPa ESE 4mph /  6.4km/h 4.6mph /  7.4km/h 73% 0in /  0.0mm 0.00 W/m2 FEW
02:29 44.6 °F /  7.0 °C 36.1 °F /  2.3 °C 30.1in /  1019.6hPa ESE 3.8mph /  6.1km/h 4mph /  6.4km/h 72% 0in /  0.0mm 0.00 W/m2 FEW
02:34 45 °F /  7.2 °C 36.1 °F /  2.3 °C 30.1in /  1019.6hPa ESE 3.6mph /  5.8km/h 5.8mph /  9.3km/h 71% 0in /  0.0mm 0.00 W/m2 FEW
02:39 45.3 °F /  7.4 °C 35.8 °F /  2.1 °C 30.1in /  1019.5hPa East 4.9mph /  7.9km/h 5.8mph /  9.3km/h 69% 0in /  0.0mm 0.00 W/m2 FEW
02:44 45.3 °F /  7.4 °C 35.8 °F /  2.1 °C 30.1in /  1019.4hPa East 5.1mph /  8.2km/h 6.9mph /  11.1km/h 69% 0in /  0.0mm 0.00 W/m2 FEW
02:49 45.1 °F /  7.3 °C 36.3 °F /  2.4 °C 30.1in /  1019.3hPa ESE 5.5mph /  8.8km/h 6mph /  9.7km/h 71% 0in /  0.0mm 0.00 W/m2 FEW
02:54 45 °F /  7.2 °C 36.1 °F /  2.3 °C 30.1in /  1019.2hPa ESE 6.2mph /  10.0km/h 6.9mph /  11.1km/h 71% 0in /  0.0mm 0.00 W/m2 FEW
02:59 44.6 °F /  7.0 °C 35.8 °F /  2.1 °C 30.1in /  1019.1hPa ESE 6.8mph /  10.9km/h 9.2mph /  14.8km/h 71% 0in /  0.0mm 0.00 W/m2 FEW
03:04 44.4 °F /  6.9 °C 36 °F /  2.2 °C 30.1in /  1019.1hPa East 7.1mph /  11.4km/h 9.2mph /  14.8km/h 72% 0in /  0.0mm 0.00 W/m2 FEW
03:09 44.2 °F /  6.8 °C 35.8 °F /  2.1 °C 30.1in /  1018.8hPa East 8mph /  12.9km/h 8.1mph /  13.0km/h 72% 0in /  0.0mm 0.00 W/m2 FEW
03:14 43.9 °F /  6.6 °C 35.8 °F /  2.1 °C 30.1in /  1018.7hPa East 7.2mph /  11.6km/h 10.4mph /  16.7km/h 73% 0in /  0.0mm 0.00 W/m2 FEW
03:19 43.9 °F /  6.6 °C 35.8 °F /  2.1 °C 30.1in /  1018.8hPa ESE 7.4mph /  11.9km/h 9.2mph /  14.8km/h 73% 0in /  0.0mm 0.00 W/m2 FEW
03:24 43.9 °F /  6.6 °C 35.4 °F /  1.9 °C 30.1in /  1018.6hPa East 8.2mph /  13.2km/h 11.5mph /  18.5km/h 72% 0in /  0.0mm 0.00 W/m2 FEW
03:29 43.9 °F /  6.6 °C 35.4 °F /  1.9 °C 30.1in /  1018.5hPa ESE 6mph /  9.7km/h 8.1mph /  13.0km/h 72% 0in /  0.0mm 0.00 W/m2 FEW
03:34 43.5 °F /  6.4 °C 35.2 °F /  1.8 °C 30.1in /  1018.5hPa ESE 7.5mph /  12.1km/h 8.1mph /  13.0km/h 72% 0in /  0.0mm 0.00 W/m2 FEW
03:39 43.9 °F /  6.6 °C 35.1 °F /  1.7 °C 30.1in /  1018.3hPa ESE 8.3mph /  13.4km/h 10.4mph /  16.7km/h 71% 0in /  0.0mm 0.00 W/m2 FEW
03:44 44.1 °F /  6.7 °C 35.2 °F /  1.8 °C 30.1in /  1018.1hPa ESE 7.7mph /  12.4km/h 9.2mph /  14.8km/h 71% 0in /  0.0mm 0.00 W/m2 FEW
03:49 43.9 °F /  6.6 °C 35.1 °F /  1.7 °C 30.1in /  1018.2hPa ESE 7.5mph /  12.1km/h 9.2mph /  14.8km/h 71% 0in /  0.0mm 0.00 W/m2 FEW
03:54 43.5 °F /  6.4 °C 34.9 °F /  1.6 °C 30.1in /  1018.1hPa East 7.5mph /  12.1km/h 9.2mph /  14.8km/h 71% 0in /  0.0mm 0.00 W/m2 FEW
03:59 43.3 °F /  6.3 °C 34.9 °F /  1.6 °C 30.1in /  1018.0hPa ESE 7.6mph /  12.2km/h 8.1mph /  13.0km/h 72% 0in /  0.0mm 0.00 W/m2 FEW
04:04 43 °F /  6.1 °C 34.9 °F /  1.6 °C 30.1in /  1017.9hPa ESE 6.8mph /  10.9km/h 9.2mph /  14.8km/h 73% 0in /  0.0mm 0.00 W/m2 FEW
04:09 43 °F /  6.1 °C 35.2 °F /  1.8 °C 30.1in /  1017.9hPa ESE 6.4mph /  10.3km/h 9.2mph /  14.8km/h 74% 0in /  0.0mm 0.00 W/m2 FEW
04:14 42.8 °F /  6.0 °C 35.1 °F /  1.7 °C 30.1in /  1017.8hPa ESE 7.5mph /  12.1km/h 9.2mph /  14.8km/h 74% 0in /  0.0mm 0.00 W/m2 FEW
04:19 43 °F /  6.1 °C 35.2 °F /  1.8 °C 30.1in /  1017.7hPa East 7.5mph /  12.1km/h 9.2mph /  14.8km/h 74% 0in /  0.0mm 0.00 W/m2 FEW
04:24 42.6 °F /  5.9 °C 35.1 °F /  1.7 °C 30.1in /  1017.6hPa ESE 6.8mph /  10.9km/h 10.4mph /  16.7km/h 74% 0in /  0.0mm 0.00 W/m2 FEW
04:29 42.6 °F /  5.9 °C 35.1 °F /  1.7 °C 30.1in /  1017.5hPa ESE 7.1mph /  11.4km/h 8.1mph /  13.0km/h 74% 0in /  0.0mm 0.00 W/m2 FEW
04:34 42.6 °F /  5.9 °C 35.1 °F /  1.7 °C 30in /  1017.4hPa ESE 6.3mph /  10.1km/h 8.1mph /  13.0km/h 74% 0in /  0.0mm 0.00 W/m2 FEW
04:39 42.6 °F /  5.9 °C 34.5 °F /  1.4 °C 30in /  1017.3hPa ESE 7.3mph /  11.7km/h 9.2mph /  14.8km/h 73% 0in /  0.0mm 0.00 W/m2 FEW
04:44 42.8 °F /  6.0 °C 34.7 °F /  1.5 °C 30in /  1017.2hPa ESE 6.8mph /  10.9km/h 9.2mph /  14.8km/h 73% 0in /  0.0mm 0.00 W/m2 FEW
04:49 42.6 °F /  5.9 °C 34.5 °F /  1.4 °C 30in /  1017.2hPa ESE 6.6mph /  10.6km/h 10.4mph /  16.7km/h 73% 0in /  0.0mm 0.00 W/m2 FEW
04:54 42.4 °F /  5.8 °C 34.7 °F /  1.5 °C 30in /  1017.2hPa East 7.4mph /  11.9km/h 10mph /  16.1km/h 74% 0in /  0.0mm 0.00 W/m2 FEW
04:59 42.4 °F /  5.8 °C 34.7 °F /  1.5 °C 30in /  1017.2hPa ESE 7mph /  11.3km/h 8.1mph /  13.0km/h 74% 0in /  0.0mm 0.00 W/m2 FEW
05:04 42.4 °F /  5.8 °C 34.9 °F /  1.6 °C 30in /  1017.1hPa ESE 7.4mph /  11.9km/h 8.1mph /  13.0km/h 74% 0in /  0.0mm 0.00 W/m2 FEW
05:09 42.4 °F /  5.8 °C 34.7 °F /  1.5 °C 30in /  1017.2hPa East 7.5mph /  12.1km/h 10.4mph /  16.7km/h 74% 0in /  0.0mm 0.00 W/m2 FEW
05:14 42.4 °F /  5.8 °C 34.9 °F /  1.6 °C 30in /  1017.1hPa ESE 8mph /  12.9km/h 10.4mph /  16.7km/h 74% 0in /  0.0mm 0.00 W/m2 FEW
05:19 42.6 °F /  5.9 °C 34.9 °F /  1.6 °C 30in /  1017.0hPa East 8.2mph /  13.2km/h 11.5mph /  18.5km/h 74% 0in /  0.0mm 0.00 W/m2 FEW
05:24 42.6 °F /  5.9 °C 34.9 °F /  1.6 °C 30in /  1016.9hPa ESE 7.3mph /  11.7km/h 9.2mph /  14.8km/h 74% 0in /  0.0mm 0.00 W/m2 FEW
05:29 42.6 °F /  5.9 °C 34.9 °F /  1.6 °C 30in /  1017.0hPa ESE 8.5mph /  13.7km/h 10.4mph /  16.7km/h 74% 0in /  0.0mm 0.00 W/m2 FEW
05:34 42.6 °F /  5.9 °C 35.1 °F /  1.7 °C 30in /  1016.9hPa ESE 7mph /  11.3km/h 9.2mph /  14.8km/h 74% 0in /  0.0mm 0.00 W/m2 FEW
05:39 42.8 °F /  6.0 °C 35.1 °F /  1.7 °C 30in /  1017.1hPa SE 8.2mph /  13.2km/h 10.4mph /  16.7km/h 74% 0in /  0.0mm 0.00 W/m2 FEW
05:44 42.6 °F /  5.9 °C 35.1 °F /  1.7 °C 30in /  1017.1hPa ESE 8.4mph /  13.5km/h 11.5mph /  18.5km/h 74% 0in /  0.0mm 0.00 W/m2 FEW
05:49 43 °F /  6.1 °C 35.2 °F /  1.8 °C 30in /  1017.1hPa ESE 7.7mph /  12.4km/h 10.4mph /  16.7km/h 74% 0in /  0.0mm 0.00 W/m2 FEW
05:54 43.2 °F /  6.2 °C 35.1 °F /  1.7 °C 30in /  1017.0hPa ESE 8.1mph /  13.0km/h 10.4mph /  16.7km/h 73% 0in /  0.0mm 0.00 W/m2 FEW
05:59 43.3 °F /  6.3 °C 34.9 °F /  1.6 °C 30in /  1017.0hPa ESE 8mph /  12.9km/h 9.2mph /  14.8km/h 72% 0in /  0.0mm 0.00 W/m2 FEW
06:04 43.3 °F /  6.3 °C 35.2 °F /  1.8 °C 30in /  1017.1hPa ESE 8.6mph /  13.8km/h 10.4mph /  16.7km/h 73% 0in /  0.0mm 0.00 W/m2 FEW
06:09 43.3 °F /  6.3 °C 35.1 °F /  1.7 °C 30in /  1017.1hPa ESE 9mph /  14.5km/h 11.5mph /  18.5km/h 72% 0in /  0.0mm 0.00 W/m2 FEW
06:14 43.3 °F /  6.3 °C 34.9 °F /  1.6 °C 30in /  1017.0hPa ESE 8.9mph /  14.3km/h 11.5mph /  18.5km/h 72% 0in /  0.0mm 0.00 W/m2 FEW
06:19 43.3 °F /  6.3 °C 35.1 °F /  1.7 °C 30in /  1017.0hPa ESE 10.1mph /  16.3km/h 12.7mph /  20.4km/h 72% 0in /  0.0mm 0.00 W/m2 FEW
06:24 43.5 °F /  6.4 °C 35.1 °F /  1.7 °C 30in /  1017.0hPa SE 10.1mph /  16.3km/h 11.5mph /  18.5km/h 72% 0in /  0.0mm 0.00 W/m2 FEW
06:29 43.7 °F /  6.5 °C 34.9 °F /  1.6 °C 30in /  1017.0hPa ESE 9.9mph /  15.9km/h 13mph /  20.9km/h 71% 0in /  0.0mm 0.00 W/m2 FEW
06:34 43.9 °F /  6.6 °C 35.1 °F /  1.7 °C 30in /  1016.8hPa ESE 10.6mph /  17.1km/h 13.8mph /  22.2km/h 71% 0in /  0.0mm 0.00 W/m2 FEW
06:39 44.2 °F /  6.8 °C 35.1 °F /  1.7 °C 30in /  1016.7hPa East 10.4mph /  16.7km/h 14mph /  22.5km/h 70% 0in /  0.0mm 0.00 W/m2 FEW
06:44 44.2 °F /  6.8 °C 35.1 °F /  1.7 °C 30in /  1016.9hPa ESE 11.1mph /  17.9km/h 13.8mph /  22.2km/h 70% 0in /  0.0mm 0.00 W/m2 FEW
06:49 44.1 °F /  6.7 °C 34.9 °F /  1.6 °C 30in /  1016.8hPa ESE 11mph /  17.7km/h 17.3mph /  27.8km/h 70% 0in /  0.0mm 0.00 W/m2 FEW
06:54 44.1 °F /  6.7 °C 35.2 °F /  1.8 °C 30in /  1017.0hPa SE 11.2mph /  18.0km/h 15mph /  24.1km/h 71% 0in /  0.0mm 0.00 W/m2 FEW
06:59 44.1 °F /  6.7 °C 34.9 °F /  1.6 °C 30in /  1016.9hPa ESE 11.6mph /  18.7km/h 13.8mph /  22.2km/h 70% 0in /  0.0mm 0.00 W/m2 FEW
07:04 44.1 °F /  6.7 °C 34.9 °F /  1.6 °C 30in /  1016.9hPa ESE 11.7mph /  18.8km/h 14mph /  22.5km/h 70% 0in /  0.0mm 0.00 W/m2 FEW
07:09 44.1 °F /  6.7 °C 35.2 °F /  1.8 °C 30in /  1016.9hPa ESE 12.9mph /  20.8km/h 16.1mph /  25.9km/h 71% 0in /  0.0mm 0.00 W/m2 FEW
07:14 44.1 °F /  6.7 °C 35.2 °F /  1.8 °C 30in /  1017.0hPa ESE 10.4mph /  16.7km/h 16.1mph /  25.9km/h 71% 0in /  0.0mm 0.00 W/m2 FEW
07:19 43.9 °F /  6.6 °C 35.1 °F /  1.7 °C 30in /  1017.1hPa ESE 10.8mph /  17.4km/h 12mph /  19.3km/h 71% 0in /  0.0mm 0.00 W/m2 FEW
07:24 43.9 °F /  6.6 °C 35.1 °F /  1.7 °C 30in /  1017.2hPa ESE 10.7mph /  17.2km/h 11.5mph /  18.5km/h 71% 0in /  0.0mm 0.00 W/m2 FEW
07:29 43.7 °F /  6.5 °C 35.6 °F /  2.0 °C 30in /  1017.3hPa SE 10.5mph /  16.9km/h 12mph /  19.3km/h 73% 0in /  0.0mm 0.00 W/m2 FEW
07:34 43.3 °F /  6.3 °C 36 °F /  2.2 °C 30in /  1017.3hPa ESE 9.9mph /  15.9km/h 11.5mph /  18.5km/h 75% 0in /  0.0mm 0.00 W/m2 FEW
07:39 43.3 °F /  6.3 °C 36 °F /  2.2 °C 30in /  1017.3hPa ESE 9.6mph /  15.4km/h 10.4mph /  16.7km/h 75% 0in /  0.0mm 0.00 W/m2 FEW
07:44 43.3 °F /  6.3 °C 36 °F /  2.2 °C 30in /  1017.3hPa ESE 9mph /  14.5km/h 11.5mph /  18.5km/h 75% 0in /  0.0mm 0.00 W/m2 FEW
07:49 43.3 °F /  6.3 °C 36 °F /  2.2 °C 30in /  1017.3hPa ESE 8.6mph /  13.8km/h 11.5mph /  18.5km/h 75% 0in /  0.0mm 7.00 W/m2 FEW
07:54 43.3 °F /  6.3 °C 36.1 °F /  2.3 °C 30in /  1017.3hPa ESE 8.8mph /  14.2km/h 11.5mph /  18.5km/h 76% 0in /  0.0mm 9.00 W/m2 FEW
07:59 43.2 °F /  6.2 °C 36.5 °F /  2.5 °C 30in /  1017.4hPa ESE 8.5mph /  13.7km/h 10.4mph /  16.7km/h 77% 0in /  0.0mm 12.00 W/m2 FEW
08:04 43.2 °F /  6.2 °C 36.3 °F /  2.4 °C 30in /  1017.4hPa East 9.8mph /  15.8km/h 11.5mph /  18.5km/h 77% 0in /  0.0mm 14.00 W/m2 FEW
08:09 43 °F /  6.1 °C 36.7 °F /  2.6 °C 30in /  1017.4hPa ESE 11mph /  17.7km/h 10.4mph /  16.7km/h 78% 0in /  0.0mm 14.00 W/m2 FEW
08:14 42.8 °F /  6.0 °C 36.7 °F /  2.6 °C 30in /  1017.4hPa East 9.7mph /  15.6km/h 11.5mph /  18.5km/h 79% 0in /  0.0mm 12.00 W/m2 FEW
08:19 42.8 °F /  6.0 °C 36.3 °F /  2.4 °C 30.1in /  1017.5hPa East 8.7mph /  14.0km/h 13mph /  20.9km/h 78% 0in /  0.0mm 16.00 W/m2 FEW
08:24 43 °F /  6.1 °C 36.5 °F /  2.5 °C 30.1in /  1017.5hPa East 10mph /  16.1km/h 11.5mph /  18.5km/h 78% 0in /  0.0mm 21.00 W/m2 FEW
08:29 43 °F /  6.1 °C 36.5 °F /  2.5 °C 30.1in /  1017.5hPa East 9mph /  14.5km/h 11.5mph /  18.5km/h 78% 0in /  0.0mm 19.00 W/m2 FEW
08:34 43 °F /  6.1 °C 36.5 °F /  2.5 °C 30.1in /  1017.6hPa East 8.7mph /  14.0km/h 11.5mph /  18.5km/h 78% 0in /  0.0mm 25.00 W/m2 FEW
08:39 43 °F /  6.1 °C 36.7 °F /  2.6 °C 30.1in /  1017.8hPa East 9.8mph /  15.8km/h 12.7mph /  20.4km/h 78% 0in /  0.0mm 32.00 W/m2 FEW
08:44 43 °F /  6.1 °C 36.7 °F /  2.6 °C 30.1in /  1017.7hPa East 8mph /  12.9km/h 10.4mph /  16.7km/h 78% 0in /  0.0mm 30.00 W/m2 FEW
08:49 43 °F /  6.1 °C 36.7 °F /  2.6 °C 30.1in /  1017.7hPa East 7mph /  11.3km/h 11.5mph /  18.5km/h 78% 0in /  0.0mm 32.00 W/m2 FEW
08:54 43.2 °F /  6.2 °C 36.7 °F /  2.6 °C 30.1in /  1017.7hPa East 8mph /  12.9km/h 10.4mph /  16.7km/h 78% 0in /  0.0mm 30.00 W/m2 FEW
08:59 43 °F /  6.1 °C 36.9 °F /  2.7 °C 30.1in /  1017.8hPa East 7mph /  11.3km/h 8.1mph /  13.0km/h 79% 0in /  0.0mm 37.00 W/m2 FEW
09:04 43 °F /  6.1 °C 36.7 °F /  2.6 °C 30.1in /  1018.0hPa East 8mph /  12.9km/h 10.4mph /  16.7km/h 78% 0in /  0.0mm 35.00 W/m2 FEW
09:09 43.2 °F /  6.2 °C 37 °F /  2.8 °C 30.1in /  1018.0hPa East 6.3mph /  10.1km/h 10.4mph /  16.7km/h 79% 0in /  0.0mm 23.00 W/m2 FEW
09:14 43 °F /  6.1 °C 36.9 °F /  2.7 °C 30.1in /  1018.0hPa East 7.8mph /  12.6km/h 10.4mph /  16.7km/h 79% 0in /  0.0mm 21.00 W/m2 FEW
09:19 42.6 °F /  5.9 °C 37 °F /  2.8 °C 30.1in /  1017.9hPa East 9.4mph /  15.1km/h 11.5mph /  18.5km/h 80% 0in /  0.0mm 25.00 W/m2 FEW
09:24 42.6 °F /  5.9 °C 37.2 °F /  2.9 °C 30.1in /  1018.0hPa East 8.4mph /  13.5km/h 10.4mph /  16.7km/h 81% 0in /  0.0mm 28.00 W/m2 FEW
09:29 42.6 °F /  5.9 °C 37.2 °F /  2.9 °C 30.1in /  1017.9hPa East 8.8mph /  14.2km/h 11mph /  17.7km/h 81% 0in /  0.0mm 33.00 W/m2 FEW
09:34 42.6 °F /  5.9 °C 37.2 °F /  2.9 °C 30.1in /  1018.0hPa East 10.2mph /  16.4km/h 13mph /  20.9km/h 81% 0in /  0.0mm 35.00 W/m2 FEW
09:39 42.6 °F /  5.9 °C 37.2 °F /  2.9 °C 30.1in /  1018.0hPa East 10.5mph /  16.9km/h 12.7mph /  20.4km/h 81% 0in /  0.0mm 47.00 W/m2 FEW
09:44 42.8 °F /  6.0 °C 37.4 °F /  3.0 °C 30.1in /  1018.0hPa East 9.1mph /  14.6km/h 12mph /  19.3km/h 81% 0in /  0.0mm 49.00 W/m2 FEW
09:49 42.8 °F /  6.0 °C 37.8 °F /  3.2 °C 30.1in /  1017.9hPa East 9.6mph /  15.4km/h 11.5mph /  18.5km/h 82% 0.01in /  0.3mm 51.00 W/m2 RA
09:54 43 °F /  6.1 °C 37.8 °F /  3.2 °C 30.1in /  1017.8hPa East 9.7mph /  15.6km/h 13mph /  20.9km/h 82% 0.01in /  0.3mm 65.00 W/m2 RA
09:59 43 °F /  6.1 °C 37.8 °F /  3.2 °C 30.1in /  1017.6hPa ESE 8.8mph /  14.2km/h 12.7mph /  20.4km/h 82% 0.01in /  0.3mm 62.00 W/m2 RA
10:04 43 °F /  6.1 °C 37.8 °F /  3.2 °C 30.1in /  1017.5hPa East 10.4mph /  16.7km/h 12.7mph /  20.4km/h 82% 0.01in /  0.3mm 49.00 W/m2 FEW
10:09 43 °F /  6.1 °C 37.8 °F /  3.2 °C 30in /  1017.2hPa ENE 10mph /  16.1km/h 12mph /  19.3km/h 82% 0.01in /  0.3mm 77.00 W/m2 FEW
10:14 43 °F /  6.1 °C 38.1 °F /  3.4 °C 30in /  1017.1hPa ENE 10.9mph /  17.5km/h 13mph /  20.9km/h 83% 0.01in /  0.3mm 63.00 W/m2 FEW
10:19 42.8 °F /  6.0 °C 37.9 °F /  3.3 °C 30in /  1017.0hPa East 10.5mph /  16.9km/h 16.1mph /  25.9km/h 83% 0.01in /  0.3mm 44.00 W/m2 FEW
10:24 42.8 °F /  6.0 °C 37.9 °F /  3.3 °C 30in /  1017.0hPa ENE 10.3mph /  16.6km/h 11.5mph /  18.5km/h 83% 0.01in /  0.3mm 44.00 W/m2 FEW
10:29 42.8 °F /  6.0 °C 38.3 °F /  3.5 °C 30in /  1017.1hPa ENE 9mph /  14.5km/h 11.5mph /  18.5km/h 84% 0.01in /  0.3mm 33.00 W/m2 FEW
10:34 42.8 °F /  6.0 °C 38.3 °F /  3.5 °C 30in /  1017.2hPa East 9.7mph /  15.6km/h 12.7mph /  20.4km/h 84% 0.01in /  0.3mm 39.00 W/m2 FEW
10:39 42.8 °F /  6.0 °C 38.3 °F /  3.5 °C 30in /  1017.2hPa East 7.3mph /  11.7km/h 10.4mph /  16.7km/h 84% 0.01in /  0.3mm 39.00 W/m2 FEW
10:44 43 °F /  6.1 °C 38.5 °F /  3.6 °C 30in /  1017.4hPa East 8mph /  12.9km/h 11.5mph /  18.5km/h 84% 0.01in /  0.3mm 47.00 W/m2 FEW
10:49 43 °F /  6.1 °C 38.5 °F /  3.6 °C 30in /  1017.3hPa ENE 8.2mph /  13.2km/h 9.2mph /  14.8km/h 84% 0in /  0.0mm 49.00 W/m2 FEW
10:54 43.2 °F /  6.2 °C 38.7 °F /  3.7 °C 30in /  1017.4hPa East 7.5mph /  12.1km/h 10.4mph /  16.7km/h 84% 0in /  0.0mm 44.00 W/m2 FEW
10:59 43.2 °F /  6.2 °C 38.7 °F /  3.7 °C 30in /  1017.3hPa ENE 9mph /  14.5km/h 11.5mph /  18.5km/h 84% 0in /  0.0mm 46.00 W/m2 FEW
11:04 43.2 °F /  6.2 °C 38.7 °F /  3.7 °C 30in /  1017.2hPa East 8.9mph /  14.3km/h 12.7mph /  20.4km/h 84% 0in /  0.0mm 54.00 W/m2 FEW
11:09 43.2 °F /  6.2 °C 38.7 °F /  3.7 °C 30in /  1017.2hPa East 7.9mph /  12.7km/h 11.5mph /  18.5km/h 84% 0in /  0.0mm 60.00 W/m2 FEW
11:14 43.2 °F /  6.2 °C 38.7 °F /  3.7 °C 30in /  1017.4hPa East 9.5mph /  15.3km/h 12.7mph /  20.4km/h 84% 0in /  0.0mm 56.00 W/m2 FEW
11:19 43.3 °F /  6.3 °C 38.5 °F /  3.6 °C 30in /  1017.4hPa East 9.8mph /  15.8km/h 15mph /  24.1km/h 83% 0in /  0.0mm 56.00 W/m2 FEW
11:24 43.3 °F /  6.3 °C 38.5 °F /  3.6 °C 30.1in /  1017.5hPa East 10.1mph /  16.3km/h 12mph /  19.3km/h 83% 0in /  0.0mm 63.00 W/m2 FEW
11:29 43.3 °F /  6.3 °C 38.7 °F /  3.7 °C 30in /  1017.2hPa ENE 7mph /  11.3km/h 9.2mph /  14.8km/h 83% 0in /  0.0mm 58.00 W/m2 FEW
11:34 43.3 °F /  6.3 °C 38.7 °F /  3.7 °C 30in /  1017.3hPa East 9.9mph /  15.9km/h 12.7mph /  20.4km/h 83% 0in /  0.0mm 54.00 W/m2 FEW
11:39 43.3 °F /  6.3 °C 38.5 °F /  3.6 °C 30in /  1017.4hPa East 8.9mph /  14.3km/h 11mph /  17.7km/h 83% 0in /  0.0mm 44.00 W/m2 FEW
11:44 43.3 °F /  6.3 °C 38.8 °F /  3.8 °C 30in /  1017.4hPa East 9.8mph /  15.8km/h 10.4mph /  16.7km/h 84% 0in /  0.0mm 39.00 W/m2 FEW
11:49 43.2 °F /  6.2 °C 38.5 °F /  3.6 °C 30in /  1017.0hPa ENE 9.7mph /  15.6km/h 11.5mph /  18.5km/h 83% 0in /  0.0mm 44.00 W/m2 FEW
11:54 43.2 °F /  6.2 °C 38.7 °F /  3.7 °C 30in /  1017.1hPa East 11mph /  17.7km/h 12mph /  19.3km/h 84% 0in /  0.0mm 56.00 W/m2 FEW
11:59 43.2 °F /  6.2 °C 38.7 °F /  3.7 °C 30in /  1017.0hPa East 11.4mph /  18.3km/h 12.7mph /  20.4km/h 84% 0in /  0.0mm 72.00 W/m2 FEW
12:04 43.2 °F /  6.2 °C 38.7 °F /  3.7 °C 30in /  1017.0hPa East 9.2mph /  14.8km/h 12.7mph /  20.4km/h 84% 0in /  0.0mm 63.00 W/m2 FEW
12:09 43.2 °F /  6.2 °C 38.7 °F /  3.7 °C 30in /  1016.9hPa East 11.1mph /  17.9km/h 12.7mph /  20.4km/h 84% 0in /  0.0mm 74.00 W/m2 FEW
12:14 43.2 °F /  6.2 °C 39 °F /  3.9 °C 30in /  1016.6hPa East 11.7mph /  18.8km/h 13.8mph /  22.2km/h 85% 0in /  0.0mm 77.00 W/m2 FEW
12:19 43.3 °F /  6.3 °C 38.8 °F /  3.8 °C 30in /  1016.5hPa East 10.6mph /  17.1km/h 14mph /  22.5km/h 84% 0in /  0.0mm 67.00 W/m2 FEW
12:24 43.3 °F /  6.3 °C 38.8 °F /  3.8 °C 30in /  1016.5hPa East 10.7mph /  17.2km/h 11.5mph /  18.5km/h 84% 0in /  0.0mm 44.00 W/m2 FEW
12:29 43.5 °F /  6.4 °C 39 °F /  3.9 °C 30in /  1016.3hPa East 10.7mph /  17.2km/h 12.7mph /  20.4km/h 84% 0in /  0.0mm 42.00 W/m2 FEW
12:34 43.5 °F /  6.4 °C 39 °F /  3.9 °C 30in /  1016.2hPa East 9.4mph /  15.1km/h 12mph /  19.3km/h 84% 0in /  0.0mm 77.00 W/m2 FEW
12:39 43.9 °F /  6.6 °C 39.4 °F /  4.1 °C 30in /  1016.1hPa East 11mph /  17.7km/h 13mph /  20.9km/h 84% 0in /  0.0mm 98.00 W/m2 FEW
12:44 44.1 °F /  6.7 °C 39.2 °F /  4.0 °C 30in /  1016.1hPa East 10.4mph /  16.7km/h 12.7mph /  20.4km/h 83% 0in /  0.0mm 70.00 W/m2 FEW
12:49 44.1 °F /  6.7 °C 39.2 °F /  4.0 °C 30in /  1016.2hPa East 11.5mph /  18.5km/h 13.8mph /  22.2km/h 83% 0in /  0.0mm 77.00 W/m2 FEW
12:54 44.2 °F /  6.8 °C 39.4 °F /  4.1 °C 30in /  1016.1hPa East 9.5mph /  15.3km/h 11.5mph /  18.5km/h 83% 0in /  0.0mm 95.00 W/m2 FEW
12:59 44.2 °F /  6.8 °C 39.2 °F /  4.0 °C 30in /  1016.1hPa East 12mph /  19.3km/h 12mph /  19.3km/h 82% 0in /  0.0mm 86.00 W/m2 FEW
13:04 44.4 °F /  6.9 °C 39.2 °F /  4.0 °C 30in /  1016.0hPa East 12mph /  19.3km/h 12mph /  19.3km/h 82% 0in /  0.0mm 148.00 W/m2 FEW
13:09 44.6 °F /  7.0 °C 39.4 °F /  4.1 °C 30in /  1016.1hPa East 10.2mph /  16.4km/h 12.7mph /  20.4km/h 82% 0in /  0.0mm 142.00 W/m2 FEW
13:14 45 °F /  7.2 °C 39.7 °F /  4.3 °C 30in /  1016.0hPa East 9.4mph /  15.1km/h 11.5mph /  18.5km/h 82% 0in /  0.0mm 316.00 W/m2 FEW
13:19 45.7 °F /  7.6 °C 40.1 °F /  4.5 °C 30in /  1016.1hPa East 11.7mph /  18.8km/h 15mph /  24.1km/h 81% 0in /  0.0mm 343.00 W/m2 FEW
13:24 46.2 °F /  7.9 °C 40.6 °F /  4.8 °C 30in /  1016.1hPa ESE 13.7mph /  22.0km/h 16.1mph /  25.9km/h 81% 0in /  0.0mm 336.00 W/m2 FEW
13:29 46.6 °F /  8.1 °C 40.3 °F /  4.6 °C 30in /  1016.0hPa ESE 11.5mph /  18.5km/h 17.3mph /  27.8km/h 79% 0in /  0.0mm 257.00 W/m2 FEW
13:34 46.6 °F /  8.1 °C 40.3 °F /  4.6 °C 30in /  1015.8hPa East 13mph /  20.9km/h 15mph /  24.1km/h 79% 0in /  0.0mm 336.00 W/m2 FEW
13:39 47.1 °F /  8.4 °C 41.2 °F /  5.1 °C 30in /  1015.7hPa East 11.8mph /  19.0km/h 14mph /  22.5km/h 80% 0in /  0.0mm 512.00 W/m2 FEW
13:44 47.8 °F /  8.8 °C 41 °F /  5.0 °C 30in /  1015.7hPa ESE 13.6mph /  21.9km/h 16mph /  25.7km/h 77% 0in /  0.0mm 513.00 W/m2 FEW
13:49 48.6 °F /  9.2 °C 40.8 °F /  4.9 °C 30in /  1015.6hPa East 11.6mph /  18.7km/h 17.3mph /  27.8km/h 75% 0in /  0.0mm 480.00 W/m2 FEW
13:54 49.1 °F /  9.5 °C 41.9 °F /  5.5 °C 30in /  1015.6hPa East 13.7mph /  22.0km/h 18mph /  29.0km/h 76% 0in /  0.0mm 462.00 W/m2 FEW
13:59 50.5 °F /  10.3 °C 42.4 °F /  5.8 °C 30in /  1015.5hPa ESE 15mph /  24.1km/h 19.6mph /  31.5km/h 74% 0in /  0.0mm 766.00 W/m2 FEW
14:04 50.5 °F /  10.3 °C 41.4 °F /  5.2 °C 30in /  1015.4hPa ESE 14.2mph /  22.8km/h 16mph /  25.7km/h 71% 0in /  0.0mm 766.00 W/m2 FEW
14:09 50.7 °F /  10.4 °C 41.5 °F /  5.3 °C 30in /  1015.4hPa SE 14.7mph /  23.7km/h 19.6mph /  31.5km/h 71% 0in /  0.0mm 933.00 W/m2 FEW
14:14 51.1 °F /  10.6 °C 42.1 °F /  5.6 °C 30in /  1015.3hPa ESE 10.8mph /  17.4km/h 18.4mph /  29.6km/h 71% 0in /  0.0mm 420.00 W/m2 FEW
14:19 51.1 °F /  10.6 °C 42.1 °F /  5.6 °C 30in /  1015.2hPa ESE 14.8mph /  23.8km/h 19.6mph /  31.5km/h 71% 0in /  0.0mm 424.00 W/m2 FEW
14:24 51.4 °F /  10.8 °C 41.9 °F /  5.5 °C 30in /  1015.0hPa SE 13.3mph /  21.4km/h 18.4mph /  29.6km/h 70% 0in /  0.0mm 459.00 W/m2 FEW
14:29 51.3 °F /  10.7 °C 41.7 °F /  5.4 °C 30in /  1015.1hPa ESE 12.9mph /  20.8km/h 19.6mph /  31.5km/h 70% 0in /  0.0mm 260.00 W/m2 FEW
14:34 51.1 °F /  10.6 °C 41.5 °F /  5.3 °C 30in /  1015.1hPa SE 15.7mph /  25.3km/h 21.9mph /  35.2km/h 70% 0in /  0.0mm 193.00 W/m2 FEW
14:39 50.7 °F /  10.4 °C 42.1 °F /  5.6 °C 30in /  1015.1hPa SE 15.2mph /  24.5km/h 18.4mph /  29.6km/h 72% 0in /  0.0mm 239.00 W/m2 FEW
14:44 51.3 °F /  10.7 °C 42.1 °F /  5.6 °C 30in /  1014.8hPa SE 14.5mph /  23.3km/h 15mph /  24.1km/h 71% 0in /  0.0mm 290.00 W/m2 FEW
14:49 51.4 °F /  10.8 °C 41.9 °F /  5.5 °C 30in /  1014.7hPa SE 16.6mph /  26.7km/h 18.4mph /  29.6km/h 70% 0in /  0.0mm 218.00 W/m2 FEW
14:54 51.4 °F /  10.8 °C 42.1 °F /  5.6 °C 30in /  1014.4hPa East 11.7mph /  18.8km/h 16.1mph /  25.9km/h 70% 0in /  0.0mm 250.00 W/m2 FEW
14:59 51.8 °F /  11.0 °C 42.6 °F /  5.9 °C 30in /  1014.3hPa ESE 12.5mph /  20.1km/h 16.1mph /  25.9km/h 71% 0in /  0.0mm 410.00 W/m2 FEW
15:04 53.4 °F /  11.9 °C 42.8 °F /  6.0 °C 30in /  1014.2hPa ESE 14.7mph /  23.7km/h 16.1mph /  25.9km/h 67% 0in /  0.0mm 944.00 W/m2 FEW
15:09 54.3 °F /  12.4 °C 43.2 °F /  6.2 °C 29.9in /  1014.1hPa ESE 14.7mph /  23.7km/h 19.6mph /  31.5km/h 66% 0in /  0.0mm 898.00 W/m2 FEW
15:14 53.8 °F /  12.1 °C 42.6 °F /  5.9 °C 29.9in /  1013.8hPa East 16.2mph /  26.1km/h 19mph /  30.6km/h 66% 0in /  0.0mm 255.00 W/m2 FEW
15:19 54 °F /  12.2 °C 43.3 °F /  6.3 °C 29.9in /  1013.7hPa ESE 15.9mph /  25.6km/h 18.4mph /  29.6km/h 67% 0in /  0.0mm 466.00 W/m2 FEW
15:24 55 °F /  12.8 °C 43.9 °F /  6.6 °C 29.9in /  1013.7hPa SE 17.7mph /  28.5km/h 23mph /  37.0km/h 66% 0in /  0.0mm 956.00 W/m2 FEW
15:29 55.8 °F /  13.2 °C 44.4 °F /  6.9 °C 29.9in /  1013.3hPa East 15.6mph /  25.1km/h 23mph /  37.0km/h 66% 0in /  0.0mm 840.00 W/m2 FEW
15:34 55 °F /  12.8 °C 43.9 °F /  6.6 °C 29.9in /  1013.5hPa ESE 16.1mph /  25.9km/h 19.6mph /  31.5km/h 66% 0in /  0.0mm 401.00 W/m2 FEW
15:39 55.8 °F /  13.2 °C 45.3 °F /  7.4 °C 29.9in /  1013.6hPa ESE 12.3mph /  19.8km/h 19.6mph /  31.5km/h 68% 0in /  0.0mm 937.00 W/m2 FEW
15:44 56.5 °F /  13.6 °C 44.4 °F /  6.9 °C 29.9in /  1013.5hPa East 13.3mph /  21.4km/h 18.4mph /  29.6km/h 64% 0in /  0.0mm 454.00 W/m2 FEW
15:49 57 °F /  13.9 °C 45.3 °F /  7.4 °C 29.9in /  1013.5hPa East 14.6mph /  23.5km/h 18.4mph /  29.6km/h 65% 0in /  0.0mm 635.00 W/m2 FEW
15:54 57.7 °F /  14.3 °C 45.3 °F /  7.4 °C 29.9in /  1013.4hPa ESE 14mph /  22.5km/h 18.4mph /  29.6km/h 63% 0in /  0.0mm 301.00 W/m2 FEW
15:59 57 °F /  13.9 °C 45 °F /  7.2 °C 29.9in /  1013.3hPa ESE 14.5mph /  23.3km/h 19.6mph /  31.5km/h 64% 0in /  0.0mm 339.00 W/m2 FEW
16:04 57 °F /  13.9 °C 45 °F /  7.2 °C 29.9in /  1013.3hPa East 15.6mph /  25.1km/h 17.3mph /  27.8km/h 64% 0in /  0.0mm 327.00 W/m2 FEW
16:09 57 °F /  13.9 °C 45 °F /  7.2 °C 29.9in /  1013.3hPa East 14.4mph /  23.2km/h 19.6mph /  31.5km/h 64% 0in /  0.0mm 155.00 W/m2 FEW
16:14 56.7 °F /  13.7 °C 45.1 °F /  7.3 °C 29.9in /  1013.2hPa East 15.5mph /  24.9km/h 18.4mph /  29.6km/h 65% 0in /  0.0mm 130.00 W/m2 FEW
16:19 56.5 °F /  13.6 °C 45.3 °F /  7.4 °C 29.9in /  1013.2hPa East 15.4mph /  24.8km/h 19.6mph /  31.5km/h 66% 0in /  0.0mm 163.00 W/m2 FEW
16:24 56.7 °F /  13.7 °C 45.3 °F /  7.4 °C 29.9in /  1013.2hPa East 15.4mph /  24.8km/h 19.6mph /  31.5km/h 66% 0in /  0.0mm 267.00 W/m2 FEW
16:29 56.5 °F /  13.6 °C 45.3 °F /  7.4 °C 29.9in /  1013.2hPa ESE 14.3mph /  23.0km/h 19.6mph /  31.5km/h 66% 0in /  0.0mm 227.00 W/m2 FEW
16:34 56.1 °F /  13.4 °C 44.4 °F /  6.9 °C 29.9in /  1013.3hPa ESE 14.1mph /  22.7km/h 20.7mph /  33.3km/h 65% 0in /  0.0mm 90.00 W/m2 FEW
16:39 55.6 °F /  13.1 °C 44.8 °F /  7.1 °C 29.9in /  1013.3hPa ESE 14mph /  22.5km/h 18.4mph /  29.6km/h 67% 0in /  0.0mm 47.00 W/m2 FEW
16:44 54.7 °F /  12.6 °C 44.1 °F /  6.7 °C 29.9in /  1013.5hPa SE 12.3mph /  19.8km/h 17.3mph /  27.8km/h 67% 0in /  0.0mm 30.00 W/m2 FEW
16:49 54 °F /  12.2 °C 44.4 °F /  6.9 °C 29.9in /  1013.4hPa East 14.9mph /  24.0km/h 17mph /  27.4km/h 70% 0in /  0.0mm 88.00 W/m2 FEW
16:54 53.1 °F /  11.7 °C 45.7 °F /  7.6 °C 29.9in /  1013.2hPa East 13.4mph /  21.6km/h 18.4mph /  29.6km/h 76% 0.01in /  0.3mm 237.00 W/m2 RA
16:59 53.4 °F /  11.9 °C 46.4 °F /  8.0 °C 29.9in /  1013.3hPa East 11.7mph /  18.8km/h 14mph /  22.5km/h 77% 0.01in /  0.3mm 619.00 W/m2 RA
17:04 54.1 °F /  12.3 °C 47.1 °F /  8.4 °C 29.9in /  1013.3hPa East 11mph /  17.7km/h 15mph /  24.1km/h 77% 0.01in /  0.3mm 563.00 W/m2 RA
17:09 54.1 °F /  12.3 °C 46.8 °F /  8.2 °C 29.9in /  1013.3hPa ESE 12.6mph /  20.3km/h 18.4mph /  29.6km/h 76% 0.01in /  0.3mm 292.00 W/m2 FEW
17:14 54.1 °F /  12.3 °C 46.8 °F /  8.2 °C 29.9in /  1013.2hPa ESE 13.9mph /  22.4km/h 16.1mph /  25.9km/h 76% 0.01in /  0.3mm 211.00 W/m2 FEW
17:19 53.8 °F /  12.1 °C 46.4 °F /  8.0 °C 29.9in /  1013.4hPa ESE 15.6mph /  25.1km/h 19.6mph /  31.5km/h 76% 0.01in /  0.3mm 209.00 W/m2 FEW
17:24 53.8 °F /  12.1 °C 46.8 °F /  8.2 °C 29.9in /  1013.3hPa ESE 12.8mph /  20.6km/h 15mph /  24.1km/h 77% 0.01in /  0.3mm 95.00 W/m2 FEW
17:29 53.6 °F /  12.0 °C 46.9 °F /  8.3 °C 29.9in /  1013.5hPa East 9.3mph /  15.0km/h 17.3mph /  27.8km/h 78% 0.01in /  0.3mm 81.00 W/m2 FEW
17:34 53.4 °F /  11.9 °C 46.8 °F /  8.2 °C 29.9in /  1013.5hPa East 11.4mph /  18.3km/h 13.8mph /  22.2km/h 78% 0.01in /  0.3mm 69.00 W/m2 FEW
17:39 53.4 °F /  11.9 °C 46.8 °F /  8.2 °C 29.9in /  1013.5hPa East 9.6mph /  15.4km/h 13.8mph /  22.2km/h 78% 0.01in /  0.3mm 93.00 W/m2 FEW
17:44 54 °F /  12.2 °C 47.1 °F /  8.4 °C 29.9in /  1013.4hPa East 12.3mph /  19.8km/h 14mph /  22.5km/h 78% 0.01in /  0.3mm 90.00 W/m2 FEW
17:49 54.1 °F /  12.3 °C 46.9 °F /  8.3 °C 29.9in /  1013.2hPa East 10.1mph /  16.3km/h 16.1mph /  25.9km/h 77% 0.01in /  0.3mm 155.00 W/m2 FEW
17:54 54 °F /  12.2 °C 46.9 °F /  8.3 °C 29.9in /  1013.2hPa ESE 13mph /  20.9km/h 17.3mph /  27.8km/h 77% 0in /  0.0mm 98.00 W/m2 FEW
17:59 53.8 °F /  12.1 °C 46.8 °F /  8.2 °C 29.9in /  1013.0hPa ESE 8.7mph /  14.0km/h 12.7mph /  20.4km/h 77% 0in /  0.0mm 90.00 W/m2 FEW
18:04 53.8 °F /  12.1 °C 46.8 °F /  8.2 °C 29.9in /  1012.8hPa East 11.5mph /  18.5km/h 13.8mph /  22.2km/h 77% 0in /  0.0mm 269.00 W/m2 FEW
18:09 53.8 °F /  12.1 °C 46.4 °F /  8.0 °C 29.9in /  1012.5hPa ENE 13.4mph /  21.6km/h 19.6mph /  31.5km/h 76% 0in /  0.0mm 241.00 W/m2 FEW
18:14 53.8 °F /  12.1 °C 46.4 °F /  8.0 °C 29.9in /  1012.5hPa East 14.6mph /  23.5km/h 17.3mph /  27.8km/h 76% 0in /  0.0mm 116.00 W/m2 FEW
18:19 53.8 °F /  12.1 °C 46 °F /  7.8 °C 29.9in /  1012.5hPa ESE 13.8mph /  22.2km/h 16.1mph /  25.9km/h 75% 0in /  0.0mm 178.00 W/m2 FEW
18:24 53.8 °F /  12.1 °C 45.1 °F /  7.3 °C 29.9in /  1012.5hPa ESE 12.9mph /  20.8km/h 17.3mph /  27.8km/h 73% 0in /  0.0mm 62.00 W/m2 FEW
18:29 53.4 °F /  11.9 °C 45.1 °F /  7.3 °C 29.9in /  1012.5hPa East 10.4mph /  16.7km/h 16.1mph /  25.9km/h 73% 0in /  0.0mm 63.00 W/m2 FEW
18:34 53.2 °F /  11.8 °C 45.7 °F /  7.6 °C 29.9in /  1012.4hPa East 11.6mph /  18.7km/h 11.5mph /  18.5km/h 75% 0in /  0.0mm 91.00 W/m2 FEW
Friend Weather